Time;durP1;ratioP1;P1;durP2;ratioP2;P2;SDS_P1;SDS_P2;PMS_P1;PMS_P2;Temp;Humidity;BMP_temperature;BMP_pressure;BME280_temperature;BME280_humidity;BME280_pressure;Samples;Min_cycle;Max_cycle;Signal;HPM_P1;HPM_P2
2022/08/14 00:01:50;;;;;;;5.17;3.10;;;;;;;;;;5118114;28;20674;-63
2022/08/14 00:04:24;;;;;;;3.97;3.10;;;;;;;;;;5117978;28;20309;-63
2022/08/14 00:07:02;;;;;;;4.03;2.93;;;;;;;;;;5117771;28;20287;-63
2022/08/14 00:09:30;;;;;;;3.13;2.93;;;;;;;;;;5118376;28;20224;-63
2022/08/14 00:11:59;;;;;;;4.53;2.80;;;;;;;;;;5117952;28;20704;-64
2022/08/14 00:14:30;;;;;;;5.10;3.40;;;;;;;;;;5117894;28;20237;-63
2022/08/14 00:16:58;;;;;;;4.27;2.73;;;;;;;;;;5118086;28;20208;-64
2022/08/14 00:19:29;;;;;;;5.50;2.83;;;;;;;;;;5121017;28;20281;-63
2022/08/14 00:21:58;;;;;;;6.30;3.53;;;;;;;;;;5122150;28;20246;-63
2022/08/14 00:24:26;;;;;;;5.67;3.07;;;;;;;;;;5117379;28;20262;-63
2022/08/14 00:26:58;;;;;;;3.20;2.90;;;;;;;;;;5101861;28;20206;-63
2022/08/14 00:29:29;;;;;;;3.30;3.00;;;;;;;;;;5101430;28;20238;-63
2022/08/14 00:32:07;;;;;;;6.27;3.30;;;;;;;;;;5101419;28;20641;-64
2022/08/14 00:35:00;;;;;;;4.33;3.20;;;;;;;;;;5101931;28;20229;-63
2022/08/14 00:37:28;;;;;;;3.03;2.63;;;;;;;;;;5113979;28;20206;-63
2022/08/14 00:39:58;;;;;;;3.23;2.80;;;;;;;;;;5121979;28;20212;-63
2022/08/14 00:42:28;;;;;;;3.93;3.00;;;;;;;;;;5121876;28;20242;-63
2022/08/14 00:45:17;;;;;;;4.50;3.00;;;;;;;;;;5121897;28;20218;-63
2022/08/14 00:47:47;;;;;;;4.90;2.80;;;;;;;;;;5121652;28;20277;-63
2022/08/14 00:50:18;;;;;;;3.17;2.70;;;;;;;;;;5121467;28;20641;-63
2022/08/14 00:52:51;;;;;;;4.37;2.70;;;;;;;;;;5121158;28;20566;-63
2022/08/14 00:55:19;;;;;;;4.47;2.73;;;;;;;;;;5121654;28;20207;-63
2022/08/14 00:58:29;;;;;;;3.90;2.80;;;;;;;;;;5121360;28;20245;-64
2022/08/14 01:00:37;;;;;;;5.20;2.80;;;;;;;;;;5121280;28;20671;-64
2022/08/14 01:03:25;;;;;;;2.60;2.40;;;;;;;;;;5121167;28;20669;-63
2022/08/14 01:05:59;;;;;;;3.67;2.53;;;;;;;;;;5121189;28;20215;-63
2022/08/14 01:08:29;;;;;;;2.47;2.27;;;;;;;;;;5121423;28;20229;-63
2022/08/14 01:11:18;;;;;;;2.97;2.70;;;;;;;;;;5121196;28;20212;-63
2022/08/14 01:13:49;;;;;;;2.73;2.53;;;;;;;;;;5121484;28;20230;-63
2022/08/14 01:16:23;;;;;;;5.47;2.80;;;;;;;;;;5120913;28;20201;-63
2022/08/14 01:21:46;;;;;;;4.40;2.53;;;;;;;;;;5120845;28;20694;-63
2022/08/14 01:24:20;;;;;;;3.93;2.60;;;;;;;;;;5116595;27;20288;-63
2022/08/14 01:26:58;;;;;;;7.87;2.67;;;;;;;;;;5100294;28;20206;-64
2022/08/14 01:29:28;;;;;;;3.50;2.30;;;;;;;;;;5100467;28;20223;-64
2022/08/14 01:32:17;;;;;;;3.53;2.30;;;;;;;;;;5100597;28;20208;-63
2022/08/14 01:34:51;;;;;;;2.97;2.23;;;;;;;;;;5100496;28;20259;-64
2022/08/14 01:37:43;;;;;;;4.23;2.43;;;;;;;;;;5114481;28;20198;-63
2022/08/14 01:40:23;;;;;;;3.43;2.27;;;;;;;;;;5120424;28;20700;-63
2022/08/14 01:43:00;;;;;;;5.63;2.50;;;;;;;;;;5120712;28;20206;-63
2022/08/14 01:45:29;;;;;;;4.17;2.10;;;;;;;;;;5120683;28;20208;-63
2022/08/14 01:48:07;;;;;;;4.20;2.30;;;;;;;;;;5120597;28;20208;-63
2022/08/14 01:50:41;;;;;;;2.97;2.30;;;;;;;;;;5120281;28;20241;-63
2022/08/14 01:53:13;;;;;;;5.70;2.40;;;;;;;;;;5120234;28;20227;-64
2022/08/14 01:55:41;;;;;;;4.53;2.40;;;;;;;;;;5120471;28;20216;-63
2022/08/14 01:58:13;;;;;;;6.67;2.40;;;;;;;;;;5120214;28;20206;-64
2022/08/14 02:00:53;;;;;;;3.37;2.37;;;;;;;;;;5120522;28;20202;-63
2022/08/14 02:03:24;;;;;;;5.77;2.70;;;;;;;;;;5120263;28;20224;-63
2022/08/14 02:05:58;;;;;;;3.20;2.40;;;;;;;;;;5119785;28;20707;-64
2022/08/14 02:08:31;;;;;;;2.60;2.40;;;;;;;;;;5120283;28;20224;-64
2022/08/14 02:11:21;;;;;;;4.37;2.50;;;;;;;;;;5119808;28;20209;-63
2022/08/14 02:13:51;;;;;;;2.93;2.20;;;;;;;;;;5120151;28;20226;-63
2022/08/14 02:16:24;;;;;;;4.80;2.40;;;;;;;;;;5119670;28;20644;-64
2022/08/14 02:18:54;;;;;;;4.97;2.67;;;;;;;;;;5120126;28;20202;-63
2022/08/14 02:21:22;;;;;;;2.70;2.10;;;;;;;;;;5119562;28;20640;-63
2022/08/14 02:23:53;;;;;;;2.87;2.57;;;;;;;;;;5119221;28;20222;-63
2022/08/14 02:26:22;;;;;;;6.50;3.77;;;;;;;;;;5099351;28;20696;-63
2022/08/14 02:28:58;;;;;;;4.50;4.10;;;;;;;;;;5099155;28;20594;-64
2022/08/14 02:31:31;;;;;;;10.03;5.53;;;;;;;;;;5099209;28;20204;-63
2022/08/14 02:34:12;;;;;;;5.03;3.57;;;;;;;;;;5098988;28;20725;-64
2022/08/14 02:36:51;;;;;;;6.13;4.43;;;;;;;;;;5106169;28;20647;-64
2022/08/14 02:39:35;;;;;;;6.67;5.27;;;;;;;;;;5119472;28;20307;-63
2022/08/14 02:42:04;;;;;;;9.23;5.30;;;;;;;;;;5118534;28;20301;-63
2022/08/14 02:44:33;;;;;;;11.80;5.70;;;;;;;;;;5119631;28;20226;-63
2022/08/14 02:47:07;;;;;;;7.10;6.40;;;;;;;;;;5119487;28;20200;-63
2022/08/14 02:49:45;;;;;;;8.50;6.23;;;;;;;;;;5119189;28;20238;-64
2022/08/14 02:52:22;;;;;;;8.20;6.23;;;;;;;;;;5119315;28;20206;-63
2022/08/14 02:55:11;;;;;;;7.13;6.10;;;;;;;;;;5119002;28;20321;-63
2022/08/14 02:57:47;;;;;;;14.03;6.40;;;;;;;;;;5119104;28;20290;-63
2022/08/14 03:00:25;;;;;;;9.30;6.87;;;;;;;;;;5119328;28;20237;-63
2022/08/14 03:02:54;;;;;;;6.73;5.90;;;;;;;;;;5118815;28;20211;-64
2022/08/14 03:05:29;;;;;;;11.27;7.23;;;;;;;;;;5119187;28;20208;-63
2022/08/14 03:08:06;;;;;;;6.80;6.17;;;;;;;;;;5119078;28;20207;-63
2022/08/14 03:10:36;;;;;;;8.23;5.93;;;;;;;;;;5118738;28;20255;-63
2022/08/14 03:13:09;;;;;;;8.03;5.80;;;;;;;;;;5118947;28;20246;-63
2022/08/14 03:15:52;;;;;;;11.80;6.57;;;;;;;;;;5118769;28;20217;-63
2022/08/14 03:18:24;;;;;;;6.67;5.93;;;;;;;;;;5118719;28;20325;-63
2022/08/14 03:21:00;;;;;;;6.80;5.60;;;;;;;;;;5118663;28;20206;-63
2022/08/14 03:23:32;;;;;;;9.37;5.87;;;;;;;;;;5118761;28;20231;-63
2022/08/14 03:26:07;;;;;;;7.47;5.83;;;;;;;;;;5099436;28;20208;-63
2022/08/14 03:28:45;;;;;;;7.60;6.03;;;;;;;;;;5098408;28;20213;-64
2022/08/14 03:31:14;;;;;;;6.73;5.67;;;;;;;;;;5098488;28;20218;-63
2022/08/14 03:33:42;;;;;;;7.97;6.00;;;;;;;;;;5097943;28;20733;-63
2022/08/14 03:36:14;;;;;;;7.33;6.23;;;;;;;;;;5099971;28;20207;-63
2022/08/14 03:39:03;;;;;;;7.23;6.30;;;;;;;;;;5118350;28;20671;-63
2022/08/14 03:41:47;;;;;;;6.23;5.63;;;;;;;;;;5118204;28;20215;-64
2022/08/14 03:44:15;;;;;;;9.00;6.23;;;;;;;;;;5118214;28;20642;-63
2022/08/14 03:47:03;;;;;;;9.20;6.37;;;;;;;;;;5118397;28;20220;-63
2022/08/14 03:49:32;;;;;;;7.27;5.97;;;;;;;;;;5118035;28;20274;-64
2022/08/14 03:52:03;;;;;;;10.00;6.17;;;;;;;;;;5118256;28;20207;-63
2022/08/14 03:54:45;;;;;;;8.43;6.10;;;;;;;;;;5118066;28;20237;-63
2022/08/14 03:57:20;;;;;;;8.63;6.50;;;;;;;;;;5118370;28;20205;-63
2022/08/14 03:59:50;;;;;;;6.40;5.80;;;;;;;;;;5118481;28;20208;-63
2022/08/14 04:02:18;;;;;;;7.87;6.03;;;;;;;;;;5118160;28;20238;-64
2022/08/14 04:05:05;;;;;;;7.17;5.90;;;;;;;;;;5118302;28;20227;-63
2022/08/14 04:07:39;;;;;;;5.70;5.10;;;;;;;;;;5117885;28;20273;-63
2022/08/14 04:10:16;;;;;;;7.93;6.20;;;;;;;;;;5117985;28;20233;-63
2022/08/14 04:13:01;;;;;;;6.83;5.87;;;;;;;;;;5118220;28;20210;-63
2022/08/14 04:15:30;;;;;;;6.43;5.83;;;;;;;;;;5118274;28;20201;-63
2022/08/14 04:18:18;;;;;;;7.17;6.20;;;;;;;;;;5105617;28;20293;-63
2022/08/14 04:20:47;;;;;;;8.93;5.80;;;;;;;;;;5117857;28;20285;-65
2022/08/14 04:23:22;;;;;;;8.70;6.50;;;;;;;;;;5117888;28;20592;-63
2022/08/14 04:26:00;;;;;;;7.17;6.17;;;;;;;;;;5099729;28;20237;-63
2022/08/14 04:28:29;;;;;;;8.17;6.33;;;;;;;;;;5097915;28;20233;-63
2022/08/14 04:31:18;;;;;;;7.17;6.53;;;;;;;;;;5097680;28;20228;-64
2022/08/14 04:34:06;;;;;;;7.10;6.37;;;;;;;;;;5097452;28;20231;-63
2022/08/14 04:43:34;;;;;;;7.00;6.30;;;;;;;;;;5103407;28;20204;-63
2022/08/14 04:45:00;;;;;;;6.33;4.80;;;;;;;;;;5118021;28;20257;-64
2022/08/14 04:50:20;;;;;;;8.83;4.97;;;;;;;;;;5117665;28;20289;-64
2022/08/14 04:53:09;;;;;;;7.63;4.23;;;;;;;;;;5117704;28;20224;-64
2022/08/14 04:55:37;;;;;;;6.73;3.90;;;;;;;;;;5117537;28;20202;-64
2022/08/14 04:58:05;;;;;;;8.50;4.40;;;;;;;;;;5117858;28;20249;-64
2022/08/14 05:00:51;;;;;;;8.37;3.80;;;;;;;;;;5117847;28;20208;-64
2022/08/14 05:03:20;;;;;;;4.97;3.67;;;;;;;;;;5117835;28;20237;-64
2022/08/14 05:05:52;;;;;;;3.57;3.27;;;;;;;;;;5119209;28;20206;-64
2022/08/14 05:08:22;;;;;;;5.30;3.10;;;;;;;;;;5121492;28;20232;-64
2022/08/14 05:11:10;;;;;;;3.67;2.87;;;;;;;;;;5121114;28;20242;-64
2022/08/14 05:13:40;;;;;;;5.47;3.50;;;;;;;;;;5121328;28;20236;-64
2022/08/14 05:16:30;;;;;;;6.43;2.87;;;;;;;;;;5120773;28;20210;-64
2022/08/14 05:18:58;;;;;;;6.83;3.33;;;;;;;;;;5121310;28;20243;-63
2022/08/14 05:21:46;;;;;;;13.67;4.33;;;;;;;;;;5121114;28;20210;-64
2022/08/14 05:24:34;;;;;;;18.57;5.70;;;;;;;;;;5114550;28;20228;-64
2022/08/14 05:27:04;;;;;;;14.97;5.47;;;;;;;;;;5100663;28;20212;-64
2022/08/14 05:29:32;;;;;;;18.57;6.13;;;;;;;;;;5100501;28;20664;-64
2022/08/14 05:32:05;;;;;;;19.60;5.97;;;;;;;;;;5100600;28;20229;-62
2022/08/14 05:34:33;;;;;;;13.60;4.93;;;;;;;;;;5100654;28;20265;-62
2022/08/14 05:37:01;;;;;;;10.33;5.10;;;;;;;;;;5109052;28;20204;-64
2022/08/14 05:39:30;;;;;;;15.80;5.10;;;;;;;;;;5120916;27;20204;-65
2022/08/14 05:41:58;;;;;;;11.90;4.40;;;;;;;;;;5120718;28;20207;-65
2022/08/14 05:44:27;;;;;;;7.73;4.07;;;;;;;;;;5120416;28;20667;-65
2022/08/14 05:46:57;;;;;;;5.03;3.70;;;;;;;;;;5120428;28;20210;-62
2022/08/14 05:49:27;;;;;;;10.83;4.07;;;;;;;;;;5120473;28;20207;-62
2022/08/14 05:52:00;;;;;;;8.87;4.37;;;;;;;;;;5076087;28;20220;-62
2022/08/14 05:54:29;;;;;;;9.00;4.83;;;;;;;;;;5079627;28;20317;-62
2022/08/14 05:57:02;;;;;;;5.53;3.80;;;;;;;;;;5079283;28;20736;-63
2022/08/14 05:59:30;;;;;;;3.43;3.13;;;;;;;;;;5079624;28;20233;-63
2022/08/14 06:02:06;;;;;;;4.70;3.27;;;;;;;;;;5079577;28;20224;-63
2022/08/14 06:04:38;;;;;;;7.10;3.43;;;;;;;;;;5079131;28;20279;-63
2022/08/14 06:07:07;;;;;;;5.87;3.47;;;;;;;;;;5078907;28;20635;-64
2022/08/14 06:09:36;;;;;;;4.57;3.37;;;;;;;;;;5078954;28;20321;-63
2022/08/14 06:12:07;;;;;;;6.77;3.53;;;;;;;;;;5078997;28;20597;-64
2022/08/14 06:14:35;;;;;;;4.00;3.50;;;;;;;;;;5079287;28;20316;-64
2022/08/14 06:17:05;;;;;;;5.63;2.93;;;;;;;;;;5071487;28;20209;-65
2022/08/14 06:19:33;;;;;;;6.67;3.43;;;;;;;;;;5057824;28;20211;-63
2022/08/14 06:22:02;;;;;;;5.83;3.17;;;;;;;;;;5058066;28;20207;-64
2022/08/14 06:24:30;;;;;;;7.03;3.40;;;;;;;;;;5073957;28;20261;-64
2022/08/14 06:27:02;;;;;;;4.67;3.57;;;;;;;;;;5078981;28;20244;-63
2022/08/14 06:29:36;;;;;;;6.10;3.63;;;;;;;;;;5079065;28;20210;-65
2022/08/14 06:32:05;;;;;;;8.23;3.70;;;;;;;;;;5078868;28;20222;-66
2022/08/14 06:34:52;;;;;;;5.80;3.83;;;;;;;;;;5078738;28;20233;-64
2022/08/14 06:37:41;;;;;;;7.50;4.57;;;;;;;;;;5067627;28;20208;-64
2022/08/14 06:40:11;;;;;;;6.37;4.00;;;;;;;;;;5058866;28;20238;-65
2022/08/14 06:42:55;;;;;;;8.97;3.80;;;;;;;;;;5058774;28;20214;-65
2022/08/14 06:45:27;;;;;;;7.00;4.20;;;;;;;;;;5058917;28;20289;-65
2022/08/14 06:47:55;;;;;;;9.90;5.03;;;;;;;;;;5056950;28;20211;-65
2022/08/14 06:50:26;;;;;;;9.47;5.07;;;;;;;;;;5073076;28;20232;-67
2022/08/14 06:52:58;;;;;;;12.27;4.27;;;;;;;;;;5096729;28;20204;-65
2022/08/14 06:55:27;;;;;;;7.17;4.23;;;;;;;;;;5096875;28;20237;-65
2022/08/14 06:57:56;;;;;;;7.10;4.70;;;;;;;;;;5096953;28;20288;-65
2022/08/14 07:00:26;;;;;;;6.23;4.83;;;;;;;;;;5097013;28;20262;-64
2022/08/14 07:05:47;;;;;;;8.23;5.00;;;;;;;;;;5098222;28;20246;-64
2022/08/14 07:08:27;;;;;;;5.67;4.50;;;;;;;;;;5098642;28;20289;-65
2022/08/14 07:10:58;;;;;;;8.17;4.50;;;;;;;;;;5098291;28;20655;-65
2022/08/14 07:13:27;;;;;;;6.13;4.47;;;;;;;;;;5098740;28;20265;-65
2022/08/14 07:15:57;;;;;;;6.00;4.50;;;;;;;;;;5101534;28;20206;-65
2022/08/14 07:18:28;;;;;;;8.37;5.50;;;;;;;;;;5102000;28;20210;-65
2022/08/14 07:20:57;;;;;;;6.40;4.33;;;;;;;;;;5098013;28;20734;-68
2022/08/14 07:23:26;;;;;;;7.90;4.90;;;;;;;;;;5104534;28;20275;-66
2022/08/14 07:25:58;;;;;;;9.33;4.23;;;;;;;;;;5118198;28;20208;-66
2022/08/14 07:28:27;;;;;;;7.30;4.70;;;;;;;;;;5118271;28;20231;-65
2022/08/14 07:30:56;;;;;;;6.33;4.23;;;;;;;;;;5118663;28;20260;-65
2022/08/14 07:33:33;;;;;;;7.00;4.87;;;;;;;;;;5118331;28;20225;-65
2022/08/14 07:36:05;;;;;;;6.60;4.50;;;;;;;;;;5118431;28;20247;-65
2022/08/14 07:38:54;;;;;;;8.87;4.63;;;;;;;;;;5107580;28;20212;-65
2022/08/14 07:41:22;;;;;;;9.43;5.80;;;;;;;;;;5118134;28;20717;-65
2022/08/14 07:43:50;;;;;;;8.60;4.73;;;;;;;;;;5118504;28;20261;-65
2022/08/14 07:46:22;;;;;;;9.83;4.73;;;;;;;;;;5117777;28;20230;-66
2022/08/14 07:48:56;;;;;;;6.40;4.70;;;;;;;;;;5118432;28;20204;-65
2022/08/14 07:51:24;;;;;;;7.93;4.80;;;;;;;;;;5117822;28;20233;-65
2022/08/14 07:54:05;;;;;;;6.50;4.27;;;;;;;;;;5118255;28;20254;-65
2022/08/14 07:56:38;;;;;;;7.17;4.27;;;;;;;;;;5118415;28;20289;-65
2022/08/14 07:59:16;;;;;;;7.10;4.50;;;;;;;;;;5118157;28;20733;-67
2022/08/14 08:01:45;;;;;;;8.30;4.83;;;;;;;;;;5118477;28;20207;-67
2022/08/14 08:04:20;;;;;;;10.70;4.83;;;;;;;;;;5118351;28;20238;-65
2022/08/14 08:06:52;;;;;;;5.60;4.63;;;;;;;;;;5118130;28;20203;-66
2022/08/14 08:09:23;;;;;;;6.53;4.90;;;;;;;;;;5118189;28;20701;-64
2022/08/14 08:12:00;;;;;;;7.50;4.33;;;;;;;;;;5118418;28;20276;-67
2022/08/14 08:14:36;;;;;;;6.77;4.93;;;;;;;;;;5118008;28;20653;-64
2022/08/14 08:17:24;;;;;;;13.03;5.67;;;;;;;;;;5117935;28;20204;-64
2022/08/14 08:20:01;;;;;;;7.97;5.73;;;;;;;;;;5118222;28;20215;-64
2022/08/14 08:22:29;;;;;;;7.77;6.43;;;;;;;;;;5117753;28;20284;-64
2022/08/14 08:25:00;;;;;;;6.90;5.77;;;;;;;;;;5108625;28;20229;-65
2022/08/14 08:27:28;;;;;;;12.43;5.80;;;;;;;;;;5097337;28;20233;-65
2022/08/14 08:30:03;;;;;;;10.37;6.00;;;;;;;;;;5097572;28;20684;-66
2022/08/14 08:32:40;;;;;;;10.53;5.83;;;;;;;;;;5097806;28;20225;-65
2022/08/14 08:35:17;;;;;;;7.30;6.00;;;;;;;;;;5097290;28;20221;-65
2022/08/14 08:37:45;;;;;;;9.17;5.40;;;;;;;;;;5112875;28;20204;-65
2022/08/14 08:40:23;;;;;;;8.23;5.20;;;;;;;;;;5118580;28;20212;-66
2022/08/14 08:42:58;;;;;;;7.83;5.60;;;;;;;;;;5121769;28;20623;-67
2022/08/14 08:45:26;;;;;;;7.43;5.13;;;;;;;;;;5122029;28;20239;-66
2022/08/14 08:47:55;;;;;;;5.00;4.40;;;;;;;;;;5122030;27;20242;-66
2022/08/14 08:50:24;;;;;;;7.73;4.80;;;;;;;;;;5121427;27;20731;-66
2022/08/14 08:52:58;;;;;;;10.77;5.63;;;;;;;;;;5121591;28;20258;-67
2022/08/14 08:55:31;;;;;;;11.43;4.80;;;;;;;;;;5121778;28;20200;-67
2022/08/14 08:58:02;;;;;;;8.27;4.47;;;;;;;;;;5121892;28;20293;-66
2022/08/14 09:00:33;;;;;;;9.70;4.40;;;;;;;;;;5121768;28;20218;-66
2022/08/14 09:03:05;;;;;;;7.00;4.20;;;;;;;;;;5121251;28;20206;-66
2022/08/14 09:05:37;;;;;;;6.53;3.87;;;;;;;;;;5121131;27;20287;-66
2022/08/14 09:08:12;;;;;;;4.43;4.00;;;;;;;;;;5121539;28;20234;-66
2022/08/14 09:11:01;;;;;;;7.33;3.80;;;;;;;;;;5121350;28;20215;-66
2022/08/14 09:13:48;;;;;;;7.77;4.37;;;;;;;;;;5121349;28;20277;-66
2022/08/14 09:16:18;;;;;;;7.77;3.83;;;;;;;;;;5121330;28;20229;-66
2022/08/14 09:18:46;;;;;;;6.27;4.00;;;;;;;;;;5121334;28;20210;-67
2022/08/14 09:21:14;;;;;;;5.77;3.63;;;;;;;;;;5120977;28;20239;-67
2022/08/14 09:23:43;;;;;;;6.57;3.53;;;;;;;;;;5120881;27;20224;-67
2022/08/14 09:26:32;;;;;;;6.27;3.30;;;;;;;;;;5109362;28;20212;-66
2022/08/14 09:29:01;;;;;;;6.27;3.33;;;;;;;;;;5120790;28;20208;-66
2022/08/14 09:31:31;;;;;;;5.10;3.33;;;;;;;;;;5121139;28;20272;-66
2022/08/14 09:34:22;;;;;;;4.53;2.97;;;;;;;;;;5120593;28;20233;-66
2022/08/14 09:37:19;;;;;;;3.83;2.57;;;;;;;;;;5119489;28;20201;-66
2022/08/14 09:39:53;;;;;;;7.70;3.57;;;;;;;;;;5085353;28;20201;-66
2022/08/14 09:42:40;;;;;;;4.90;3.00;;;;;;;;;;5100190;28;20206;-67
2022/08/14 09:45:18;;;;;;;5.67;3.30;;;;;;;;;;5100419;28;20212;-67
2022/08/14 09:47:48;;;;;;;3.97;2.50;;;;;;;;;;5100286;28;20212;-66
2022/08/14 09:50:23;;;;;;;3.70;2.60;;;;;;;;;;5099801;28;20229;-66
2022/08/14 09:52:54;;;;;;;4.60;2.87;;;;;;;;;;5099434;28;20229;-66
2022/08/14 09:55:25;;;;;;;5.90;3.37;;;;;;;;;;5100227;28;20207;-67
2022/08/14 09:58:07;;;;;;;3.10;2.83;;;;;;;;;;5100165;28;20212;-66
2022/08/14 10:00:44;;;;;;;5.47;3.07;;;;;;;;;;5100080;28;20703;-66
2022/08/14 10:03:12;;;;;;;4.33;2.93;;;;;;;;;;5099986;28;20234;-67
2022/08/14 10:05:40;;;;;;;4.83;3.10;;;;;;;;;;5099711;28;20216;-67
2022/08/14 10:08:19;;;;;;;3.97;3.03;;;;;;;;;;5099675;28;20206;-66
2022/08/14 10:10:53;;;;;;;2.50;2.27;;;;;;;;;;5099517;28;20206;-66
2022/08/14 10:13:31;;;;;;;5.63;2.40;;;;;;;;;;5099545;28;20704;-66
2022/08/14 10:16:22;;;;;;;3.40;2.47;;;;;;;;;;5105438;28;20209;-66
2022/08/14 10:19:04;;;;;;;4.53;2.53;;;;;;;;;;5120238;28;20206;-67
2022/08/14 10:21:34;;;;;;;3.33;2.70;;;;;;;;;;5119653;28;20203;-66
2022/08/14 10:24:26;;;;;;;4.30;2.30;;;;;;;;;;5115386;28;20308;-66
2022/08/14 10:27:05;;;;;;;2.83;2.30;;;;;;;;;;5099706;28;20212;-66
2022/08/14 10:29:37;;;;;;;4.27;2.47;;;;;;;;;;5099382;28;20201;-66
2022/08/14 10:32:07;;;;;;;2.87;2.37;;;;;;;;;;5099439;28;20207;-66
2022/08/14 10:35:04;;;;;;;3.93;2.47;;;;;;;;;;5099406;28;20222;-66
2022/08/14 10:37:38;;;;;;;5.63;2.33;;;;;;;;;;5112345;28;20228;-66
2022/08/14 10:40:07;;;;;;;2.90;2.63;;;;;;;;;;5119641;28;20206;-66
2022/08/14 10:42:55;;;;;;;3.83;2.70;;;;;;;;;;5119300;28;20568;-66
2022/08/14 10:45:29;;;;;;;5.10;2.40;;;;;;;;;;5119368;28;20711;-66
2022/08/14 10:48:02;;;;;;;2.83;2.40;;;;;;;;;;5119662;27;20365;-66
2022/08/14 10:50:40;;;;;;;2.60;2.40;;;;;;;;;;5119007;28;20246;-65
2022/08/14 10:53:09;;;;;;;6.10;2.40;;;;;;;;;;5119391;28;20262;-65
2022/08/14 10:55:39;;;;;;;2.60;2.30;;;;;;;;;;5119119;28;20204;-64
2022/08/14 10:58:12;;;;;;;3.90;2.53;;;;;;;;;;5119404;28;20207;-63
2022/08/14 11:00:54;;;;;;;4.30;2.97;;;;;;;;;;5119154;28;20670;-63
2022/08/14 11:03:25;;;;;;;2.67;2.43;;;;;;;;;;5118055;28;20629;-65
2022/08/14 11:06:18;;;;;;;3.40;2.40;;;;;;;;;;5118873;28;20204;-66
2022/08/14 11:08:48;;;;;;;3.40;2.17;;;;;;;;;;5119319;28;20264;-66
2022/08/14 11:11:18;;;;;;;3.83;2.47;;;;;;;;;;5118913;28;20622;-65
2022/08/14 11:13:46;;;;;;;2.70;2.40;;;;;;;;;;5119069;28;20320;-66
2022/08/14 11:16:15;;;;;;;3.10;2.10;;;;;;;;;;5118688;28;20230;-66
2022/08/14 11:18:45;;;;;;;3.87;2.00;;;;;;;;;;5119269;28;20208;-66
2022/08/14 11:21:21;;;;;;;1.90;1.80;;;;;;;;;;5118521;28;20567;-66
2022/08/14 11:23:50;;;;;;;2.30;1.77;;;;;;;;;;5118385;28;20231;-66
2022/08/14 11:26:22;;;;;;;2.17;1.87;;;;;;;;;;5098513;28;20286;-66
2022/08/14 11:28:52;;;;;;;1.70;1.60;;;;;;;;;;5098598;28;20229;-66
2022/08/14 11:31:23;;;;;;;2.17;1.70;;;;;;;;;;5098507;28;20260;-65
2022/08/14 11:33:56;;;;;;;2.53;1.73;;;;;;;;;;5098277;28;20249;-65
2022/08/14 11:36:27;;;;;;;2.30;1.90;;;;;;;;;;5101907;28;20197;-65
2022/08/14 11:39:18;;;;;;;3.23;2.07;;;;;;;;;;5105268;28;20297;-66
2022/08/14 11:42:02;;;;;;;2.67;1.50;;;;;;;;;;5118736;28;20256;-65
2022/08/14 11:44:51;;;;;;;2.60;1.80;;;;;;;;;;5118279;28;20596;-65
2022/08/14 11:47:25;;;;;;;1.67;1.30;;;;;;;;;;5118384;28;20213;-65
2022/08/14 11:50:11;;;;;;;1.63;1.53;;;;;;;;;;5118351;28;20276;-65
2022/08/14 11:52:40;;;;;;;1.57;1.40;;;;;;;;;;5118588;28;20211;-66
2022/08/14 11:55:10;;;;;;;2.27;1.53;;;;;;;;;;5118322;28;20232;-65
2022/08/14 11:57:38;;;;;;;2.70;1.60;;;;;;;;;;5118363;28;20203;-65
2022/08/14 12:00:10;;;;;;;1.63;1.50;;;;;;;;;;5118468;28;20205;-65
2022/08/14 12:02:51;;;;;;;2.93;1.60;;;;;;;;;;5118454;28;20290;-65
2022/08/14 12:05:32;;;;;;;2.00;1.77;;;;;;;;;;5106580;28;20204;-66
2022/08/14 12:08:06;;;;;;;3.13;2.07;;;;;;;;;;5118126;28;20203;-64
2022/08/14 12:10:41;;;;;;;2.90;1.60;;;;;;;;;;5118411;28;20237;-65
2022/08/14 12:13:10;;;;;;;1.87;1.50;;;;;;;;;;5118243;28;20234;-66
2022/08/14 12:15:38;;;;;;;1.40;1.30;;;;;;;;;;5121467;28;20227;-65
2022/08/14 12:18:13;;;;;;;2.47;1.70;;;;;;;;;;5109018;28;20260;-66
2022/08/14 12:20:46;;;;;;;2.37;1.60;;;;;;;;;;5122239;28;20216;-66
2022/08/14 12:23:20;;;;;;;1.40;1.30;;;;;;;;;;5122421;28;20230;-66
2022/08/14 12:25:49;;;;;;;1.90;1.57;;;;;;;;;;5105396;28;20203;-66
2022/08/14 12:28:38;;;;;;;1.80;1.33;;;;;;;;;;5101778;28;20210;-65
2022/08/14 12:31:26;;;;;;;1.80;1.50;;;;;;;;;;5101635;28;20640;-66
2022/08/14 12:34:04;;;;;;;1.93;1.73;;;;;;;;;;5101663;28;20236;-65
2022/08/14 12:36:37;;;;;;;2.73;1.60;;;;;;;;;;5107059;28;20197;-65
2022/08/14 12:39:16;;;;;;;1.77;1.40;;;;;;;;;;5121826;28;20291;-65
2022/08/14 12:41:50;;;;;;;1.53;1.43;;;;;;;;;;5121569;28;20208;-65
2022/08/14 12:44:29;;;;;;;2.20;1.80;;;;;;;;;;5121936;28;20217;-64
2022/08/14 12:47:02;;;;;;;2.27;1.40;;;;;;;;;;5121830;28;20676;-64
2022/08/14 12:49:34;;;;;;;1.97;1.50;;;;;;;;;;5121850;28;20201;-65
2022/08/14 12:52:02;;;;;;;2.53;1.13;;;;;;;;;;5121408;28;20240;-65
2022/08/14 12:54:30;;;;;;;2.30;1.67;;;;;;;;;;5121735;28;20235;-65
2022/08/14 12:57:03;;;;;;;1.33;1.20;;;;;;;;;;5121754;28;20223;-65
2022/08/14 12:59:33;;;;;;;1.30;1.20;;;;;;;;;;5122005;28;20206;-65
2022/08/14 13:02:19;;;;;;;4.10;1.40;;;;;;;;;;5121881;28;20287;-64
2022/08/14 13:04:54;;;;;;;1.50;1.30;;;;;;;;;;5121307;28;20260;-65
2022/08/14 13:07:26;;;;;;;1.50;1.20;;;;;;;;;;5121589;28;20216;-65
2022/08/14 13:10:00;;;;;;;1.77;1.67;;;;;;;;;;5121600;28;20203;-65
2022/08/14 13:12:48;;;;;;;3.07;2.07;;;;;;;;;;5121109;28;20209;-65
2022/08/14 13:15:39;;;;;;;1.43;1.20;;;;;;;;;;5120934;28;20229;-65
2022/08/14 13:18:07;;;;;;;2.30;1.57;;;;;;;;;;5121367;28;20233;-65
2022/08/14 13:20:37;;;;;;;1.90;1.57;;;;;;;;;;5120976;28;20214;-65
2022/08/14 13:23:16;;;;;;;2.47;1.93;;;;;;;;;;5121264;28;20221;-66
2022/08/14 13:25:45;;;;;;;1.80;1.70;;;;;;;;;;5103835;28;20205;-65
2022/08/14 13:28:26;;;;;;;2.80;1.53;;;;;;;;;;5100563;28;20745;-65
2022/08/14 13:31:02;;;;;;;3.93;1.80;;;;;;;;;;5100408;28;20647;-65
2022/08/14 13:33:37;;;;;;;3.17;1.70;;;;;;;;;;5100359;28;20224;-65
2022/08/14 13:36:09;;;;;;;2.37;1.50;;;;;;;;;;5101857;28;20257;-65
2022/08/14 13:38:59;;;;;;;2.77;1.50;;;;;;;;;;5120563;28;20302;-65
2022/08/14 13:41:27;;;;;;;2.37;1.63;;;;;;;;;;5120625;28;20203;-65
2022/08/14 13:44:03;;;;;;;2.40;1.60;;;;;;;;;;5120863;28;20231;-65
2022/08/14 13:46:34;;;;;;;4.43;1.50;;;;;;;;;;5120939;28;20208;-65
2022/08/14 13:49:03;;;;;;;2.30;1.70;;;;;;;;;;5120555;28;20722;-65
2022/08/14 13:51:36;;;;;;;2.23;1.90;;;;;;;;;;5120107;27;20322;-65
2022/08/14 13:54:05;;;;;;;1.63;1.50;;;;;;;;;;5120429;28;20701;-65
2022/08/14 13:56:38;;;;;;;3.00;1.80;;;;;;;;;;5120180;28;20239;-65
2022/08/14 13:59:07;;;;;;;4.17;1.80;;;;;;;;;;5120378;28;20240;-65
2022/08/14 14:01:35;;;;;;;1.93;1.80;;;;;;;;;;5120564;28;20201;-65
2022/08/14 14:04:13;;;;;;;2.93;1.50;;;;;;;;;;5120292;28;20226;-65
2022/08/14 14:06:49;;;;;;;5.23;1.80;;;;;;;;;;5120233;28;20233;-65
2022/08/14 14:09:28;;;;;;;2.70;1.50;;;;;;;;;;5120325;28;20230;-65
2022/08/14 14:12:06;;;;;;;3.57;1.50;;;;;;;;;;5120072;28;20616;-65
2022/08/14 14:14:55;;;;;;;1.80;1.60;;;;;;;;;;5119898;28;20247;-65
2022/08/14 14:17:24;;;;;;;3.13;2.00;;;;;;;;;;5119892;28;20205;-65
2022/08/14 14:19:56;;;;;;;2.57;1.80;;;;;;;;;;5120015;28;20293;-65
2022/08/14 14:22:26;;;;;;;1.87;1.73;;;;;;;;;;5119814;28;20706;-65
2022/08/14 14:25:15;;;;;;;5.10;1.80;;;;;;;;;;5111398;28;20723;-65
2022/08/14 14:27:50;;;;;;;4.80;1.87;;;;;;;;;;5119852;28;20200;-63
2022/08/14 14:30:21;;;;;;;2.13;1.50;;;;;;;;;;5119558;28;20574;-62
2022/08/14 14:33:12;;;;;;;2.03;1.50;;;;;;;;;;5119986;28;21138;-62
2022/08/14 14:36:00;;;;;;;3.63;1.50;;;;;;;;;;5119192;28;20236;-62
2022/08/14 14:38:33;;;;;;;2.07;1.70;;;;;;;;;;5104974;28;20692;-63
2022/08/14 14:41:03;;;;;;;2.27;1.70;;;;;;;;;;5098271;28;20579;-63
2022/08/14 14:43:37;;;;;;;1.50;1.40;;;;;;;;;;5098540;28;20272;-63
2022/08/14 14:46:06;;;;;;;3.07;1.70;;;;;;;;;;5098640;28;20541;-63
2022/08/14 14:48:43;;;;;;;4.10;1.80;;;;;;;;;;5099153;28;20221;-63
2022/08/14 14:51:14;;;;;;;2.87;1.80;;;;;;;;;;5096888;28;20241;-63
2022/08/14 14:53:45;;;;;;;2.03;1.70;;;;;;;;;;5099008;28;20277;-63
2022/08/14 14:56:13;;;;;;;2.47;1.63;;;;;;;;;;5098574;28;20224;-63
2022/08/14 14:59:01;;;;;;;1.60;1.50;;;;;;;;;;5099099;28;20203;-62
2022/08/14 15:01:32;;;;;;;2.00;1.80;;;;;;;;;;5098711;28;20609;-62
2022/08/14 15:04:02;;;;;;;4.23;1.57;;;;;;;;;;5098630;28;20230;-63
2022/08/14 15:06:34;;;;;;;2.03;1.20;;;;;;;;;;5098597;28;20203;-63
2022/08/14 15:09:15;;;;;;;2.10;1.20;;;;;;;;;;5098890;28;20205;-63
2022/08/14 15:11:45;;;;;;;1.33;1.10;;;;;;;;;;5105604;28;20271;-63
2022/08/14 15:14:14;;;;;;;3.33;1.50;;;;;;;;;;5119152;28;20298;-63
2022/08/14 15:17:02;;;;;;;3.60;1.40;;;;;;;;;;5118755;28;20260;-63
2022/08/14 15:19:31;;;;;;;1.40;1.30;;;;;;;;;;5118879;28;20206;-63
2022/08/14 15:21:59;;;;;;;1.67;1.50;;;;;;;;;;5118552;28;20230;-63
2022/08/14 15:24:28;;;;;;;3.80;1.57;;;;;;;;;;5113444;28;20573;-63
2022/08/14 15:26:58;;;;;;;3.60;1.80;;;;;;;;;;5098471;28;20247;-63
2022/08/14 15:29:26;;;;;;;4.37;1.93;;;;;;;;;;5098177;28;20208;-63
2022/08/14 15:31:54;;;;;;;1.97;1.50;;;;;;;;;;5098213;28;20235;-63
2022/08/14 15:34:23;;;;;;;1.93;1.53;;;;;;;;;;5098149;28;20735;-63
2022/08/14 15:37:11;;;;;;;2.60;2.40;;;;;;;;;;5108278;28;20338;-63
2022/08/14 15:39:44;;;;;;;1.93;1.83;;;;;;;;;;5118527;28;20257;-63
2022/08/14 15:42:13;;;;;;;2.10;1.90;;;;;;;;;;5118309;28;20230;-63